createdAt,value
2022-08-11T00:04:26.296Z,1.92
2022-08-11T00:09:39.453Z,2.33
2022-08-11T00:14:43.115Z,2.60
2022-08-11T00:20:13.978Z,2.50
2022-08-11T00:25:16.037Z,2.53
2022-08-11T00:30:18.181Z,2.58
2022-08-11T00:35:54.865Z,2.28
2022-08-11T00:46:20.178Z,2.13
2022-08-11T00:52:03.915Z,2.40
2022-08-11T00:57:37.046Z,2.08
2022-08-11T01:02:45.549Z,2.38
2022-08-11T01:08:02.417Z,2.20
2022-08-11T01:13:42.673Z,3.90
2022-08-11T01:19:25.549Z,2.88
2022-08-11T01:24:57.893Z,2.38
2022-08-11T01:30:21.035Z,2.67
2022-08-11T01:36:01.080Z,2.10
2022-08-11T01:41:52.317Z,2.22
2022-08-11T01:46:57.057Z,1.98
2022-08-11T01:52:14.921Z,2.80
2022-08-11T01:58:09.349Z,2.30
2022-08-11T02:08:44.218Z,2.70
2022-08-11T02:14:16.790Z,1.75
2022-08-11T02:19:37.513Z,1.60
2022-08-11T02:25:07.363Z,2.22
2022-08-11T02:30:13.161Z,2.25
2022-08-11T02:35:29.274Z,1.95
2022-08-11T02:40:35.259Z,1.90
2022-08-11T02:45:38.266Z,2.35
2022-08-11T02:51:09.163Z,2.25
2022-08-11T02:56:36.681Z,1.58
2022-08-11T03:01:53.378Z,1.83
2022-08-11T03:07:28.903Z,1.90
2022-08-11T03:13:08.003Z,1.88
2022-08-11T03:18:26.964Z,1.98
2022-08-11T03:23:31.777Z,1.70
2022-08-11T03:29:06.160Z,1.92
2022-08-11T03:34:16.694Z,2.10
2022-08-11T03:39:33.773Z,1.60
2022-08-11T03:45:03.500Z,1.52
2022-08-11T03:50:11.891Z,1.75
2022-08-11T03:55:32.469Z,1.83
2022-08-11T04:00:51.417Z,1.83
2022-08-11T04:06:14.475Z,1.73
2022-08-11T04:11:47.570Z,1.80
2022-08-11T04:17:08.239Z,2.10
2022-08-11T04:22:23.751Z,2.10
2022-08-11T04:33:07.385Z,1.92
2022-08-11T04:38:15.532Z,1.95
2022-08-11T04:44:07.196Z,2.20
2022-08-11T04:49:58.753Z,2.17
2022-08-11T04:55:28.179Z,2.15
2022-08-11T05:00:54.667Z,2.05
2022-08-11T05:11:41.133Z,2.10
2022-08-11T05:17:09.371Z,2.30
2022-08-11T05:22:32.223Z,2.20
2022-08-11T05:27:58.239Z,2.80
2022-08-11T05:33:25.641Z,2.58
2022-08-11T05:38:47.430Z,2.15
2022-08-11T05:44:19.963Z,3.42
2022-08-11T05:49:43.410Z,2.30
2022-08-11T05:55:06.944Z,2.28
2022-08-11T06:00:10.519Z,2.40
2022-08-11T06:05:12.934Z,2.83
2022-08-11T06:10:25.867Z,3.00
2022-08-11T06:15:31.437Z,3.00
2022-08-11T06:20:50.007Z,3.90
2022-08-11T06:25:53.068Z,3.08
2022-08-11T06:30:58.545Z,2.53
2022-08-11T06:36:05.669Z,2.50
2022-08-11T06:41:32.215Z,3.15
2022-08-11T06:46:39.699Z,2.67
2022-08-11T06:51:41.938Z,2.55
2022-08-11T07:02:34.758Z,2.42
2022-08-11T07:08:34.641Z,2.75
2022-08-11T07:13:56.599Z,2.67
2022-08-11T07:19:22.867Z,2.78
2022-08-11T07:24:59.415Z,2.40
2022-08-11T07:30:10.483Z,2.22
2022-08-11T07:35:16.470Z,2.25
2022-08-11T07:40:23.296Z,2.95
2022-08-11T07:45:44.635Z,1.95
2022-08-11T07:51:05.742Z,2.97
2022-08-11T07:56:08.505Z,2.35
2022-08-11T08:01:42.769Z,2.58
2022-08-11T08:07:03.800Z,2.85
2022-08-11T08:12:25.276Z,2.63
2022-08-11T08:17:45.895Z,2.88
2022-08-11T08:23:08.835Z,2.88
2022-08-11T08:28:14.273Z,2.17
2022-08-11T08:33:24.242Z,2.45
2022-08-11T08:38:26.327Z,3.15
2022-08-11T08:43:28.401Z,2.97
2022-08-11T08:53:36.275Z,2.80
2022-08-11T08:58:39.481Z,2.80
2022-08-11T09:04:06.660Z,2.47
2022-08-11T09:09:05.085Z,3.47
2022-08-11T09:14:11.497Z,2.83
2022-08-11T09:19:19.011Z,3.80
2022-08-11T09:24:39.585Z,3.05
2022-08-11T09:29:41.569Z,2.85
2022-08-11T09:34:44.376Z,3.03
2022-08-11T09:40:04.973Z,3.15
2022-08-11T09:45:08.234Z,2.80
2022-08-11T09:50:11.256Z,3.22
2022-08-11T09:55:15.197Z,3.53
2022-08-11T10:00:17.362Z,2.83
2022-08-11T10:05:38.954Z,3.42
2022-08-11T10:10:41.734Z,3.30
2022-08-11T10:16:14.441Z,3.45
2022-08-11T10:21:15.819Z,3.25
2022-08-11T10:26:38.649Z,3.25
2022-08-11T10:32:04.277Z,3.22
2022-08-11T10:37:07.197Z,3.45
2022-08-11T10:42:57.128Z,3.67
2022-08-11T10:47:59.033Z,4.05
2022-08-11T10:53:20.124Z,3.72
2022-08-11T10:58:41.412Z,3.97
2022-08-11T11:03:43.903Z,3.53
2022-08-11T11:08:53.297Z,4.03
2022-08-11T11:14:14.171Z,4.07
2022-08-11T11:19:19.411Z,3.85
2022-08-11T11:24:46.376Z,4.40
2022-08-11T11:30:07.513Z,4.05
2022-08-11T11:35:28.093Z,3.63
2022-08-11T11:40:31.679Z,3.47
2022-08-11T11:45:34.563Z,3.78
2022-08-11T11:50:37.950Z,4.03
2022-08-11T11:55:40.171Z,3.85
2022-08-11T12:01:02.638Z,3.92
2022-08-11T12:06:05.043Z,3.90
2022-08-11T12:11:28.310Z,3.63
2022-08-11T12:16:35.015Z,3.78
2022-08-11T12:22:01.078Z,3.60
2022-08-11T12:27:28.602Z,3.60
2022-08-11T12:32:32.879Z,3.72
2022-08-11T12:37:46.082Z,3.67
2022-08-11T12:43:08.255Z,3.28
2022-08-11T12:48:58.639Z,3.30
2022-08-11T12:54:14.286Z,3.42
2022-08-11T12:59:34.939Z,4.60
2022-08-11T13:04:59.445Z,4.82
2022-08-11T13:10:04.528Z,3.92
2022-08-11T13:15:07.063Z,3.97
2022-08-11T13:20:13.460Z,4.28
2022-08-11T13:25:17.079Z,3.83
2022-08-11T13:30:41.113Z,3.80
2022-08-11T13:35:46.858Z,3.72
2022-08-11T13:40:56.104Z,4.00
2022-08-11T13:46:18.535Z,3.85
2022-08-11T13:51:34.754Z,3.38
2022-08-11T13:56:41.844Z,3.20
2022-08-11T14:02:20.597Z,3.80
2022-08-11T14:07:22.943Z,4.10
2022-08-11T14:12:45.844Z,3.10
2022-08-11T14:17:52.971Z,3.78
2022-08-11T14:22:56.722Z,3.55
2022-08-11T14:28:34.476Z,3.80
2022-08-11T14:33:21.186Z,3.13
2022-08-11T14:38:23.381Z,3.47
2022-08-11T14:44:13.166Z,3.35
2022-08-11T14:49:06.306Z,3.30
2022-08-11T14:54:28.340Z,3.33
2022-08-11T14:59:30.895Z,2.80
2022-08-11T15:04:36.991Z,2.70
2022-08-11T15:10:09.882Z,3.00
2022-08-11T15:15:25.987Z,3.15
2022-08-11T15:20:48.184Z,2.78
2022-08-11T15:26:02.413Z,3.10
2022-08-11T15:31:23.380Z,2.92
2022-08-11T15:36:46.392Z,2.92
2022-08-11T15:42:37.669Z,2.78
2022-08-11T15:47:44.449Z,3.05
2022-08-11T16:04:06.175Z,3.00
2022-08-11T16:08:59.770Z,3.90
2022-08-11T16:14:23.293Z,3.53
2022-08-11T16:19:28.476Z,3.35
2022-08-11T16:27:03.234Z,3.35
2022-08-11T16:29:54.947Z,2.75
2022-08-11T16:35:28.776Z,3.20
2022-08-11T16:40:31.744Z,3.00
2022-08-11T16:45:53.436Z,3.70
2022-08-11T16:50:56.467Z,3.20
2022-08-11T16:56:03.198Z,3.05
2022-08-11T17:01:05.827Z,3.38
2022-08-11T17:06:26.497Z,3.30
2022-08-11T17:11:50.426Z,3.70
2022-08-11T17:16:52.551Z,3.80
2022-08-11T17:22:13.739Z,3.38
2022-08-11T17:32:55.803Z,3.42
2022-08-11T17:38:21.129Z,3.35
2022-08-11T17:43:41.877Z,3.30
2022-08-11T17:48:47.440Z,3.63
2022-08-11T17:54:24.533Z,3.35
2022-08-11T17:59:49.278Z,3.20
2022-08-11T18:04:52.725Z,2.72
2022-08-11T18:10:14.128Z,3.40
2022-08-11T18:15:35.102Z,3.35
2022-08-11T18:20:55.582Z,2.97
2022-08-11T18:26:19.352Z,4.00
2022-08-11T18:31:40.437Z,2.97
2022-08-11T18:37:05.174Z,3.08
2022-08-11T18:42:34.426Z,3.13
2022-08-11T18:47:57.192Z,2.65
2022-08-11T18:53:19.596Z,3.42
2022-08-11T18:58:48.013Z,3.70
2022-08-11T19:04:10.245Z,3.13
2022-08-11T19:09:34.020Z,3.20
2022-08-11T19:14:55.770Z,3.28
2022-08-11T19:20:17.782Z,3.13
2022-08-11T19:25:39.715Z,3.42
2022-08-11T19:31:00.596Z,3.40
2022-08-11T19:36:21.895Z,3.13
2022-08-11T19:47:19.104Z,3.22
2022-08-11T19:58:01.311Z,3.10
2022-08-11T20:08:42.994Z,3.20
2022-08-11T20:14:05.267Z,3.25
2022-08-11T20:19:55.738Z,3.25
2022-08-11T20:30:27.330Z,3.00
2022-08-11T20:35:48.438Z,3.05
2022-08-11T20:41:09.360Z,3.40
2022-08-11T20:46:30.147Z,3.08
2022-08-11T20:51:52.965Z,3.80
2022-08-11T20:57:15.245Z,3.78
2022-08-11T21:02:38.066Z,3.72
2022-08-11T21:08:02.416Z,3.53
2022-08-11T21:13:27.116Z,3.80
2022-08-11T21:18:51.243Z,3.35
2022-08-11T21:24:15.654Z,3.38
2022-08-11T21:29:36.828Z,3.88
2022-08-11T21:34:57.802Z,3.70
2022-08-11T21:40:19.552Z,3.88
2022-08-11T21:45:40.757Z,3.55
2022-08-11T21:51:01.861Z,3.00
2022-08-11T21:56:26.227Z,3.60
2022-08-11T22:01:48.470Z,3.63
2022-08-11T22:07:10.176Z,3.97
2022-08-11T22:12:34.905Z,3.85
2022-08-11T22:17:58.183Z,4.07
2022-08-11T22:23:19.757Z,3.65
2022-08-11T22:28:42.419Z,3.88
2022-08-11T22:34:03.474Z,3.53
2022-08-11T22:39:25.524Z,4.32
2022-08-11T22:44:47.085Z,3.80
2022-08-11T22:50:11.811Z,4.05
2022-08-11T22:55:33.962Z,3.88
2022-08-11T23:00:56.131Z,3.90
2022-08-11T23:06:18.040Z,3.90
2022-08-11T23:17:19.383Z,3.65
2022-08-11T23:22:50.010Z,3.90
2022-08-11T23:28:11.315Z,5.07
2022-08-11T23:33:33.207Z,5.20
2022-08-11T23:38:54.153Z,4.93
2022-08-11T23:44:15.123Z,4.03
2022-08-11T23:49:35.966Z,3.80
2022-08-11T23:54:57.421Z,2.78
